createdAt,value
2023-06-09T00:00:12.793Z,16.11
2023-06-09T00:03:03.681Z,16.09
2023-06-09T00:05:33.620Z,16.06
2023-06-09T00:08:02.215Z,16.04
2023-06-09T00:10:30.194Z,16.03
2023-06-09T00:12:58.473Z,16.00
2023-06-09T00:15:26.576Z,15.97
2023-06-09T00:17:55.579Z,15.94
2023-06-09T00:20:25.320Z,15.91
2023-06-09T00:22:56.616Z,15.89
2023-06-09T00:25:24.785Z,15.87
2023-06-09T00:27:52.915Z,15.85
2023-06-09T00:30:38.009Z,15.83
2023-06-09T00:33:07.656Z,15.81
2023-06-09T00:35:35.925Z,15.79
2023-06-09T00:38:04.361Z,15.76
2023-06-09T00:40:32.471Z,15.74
2023-06-09T00:43:01.044Z,15.73
2023-06-09T00:45:29.091Z,15.70
2023-06-09T00:47:57.434Z,15.68
2023-06-09T00:50:25.865Z,15.66
2023-06-09T00:52:55.246Z,15.63
2023-06-09T00:55:23.860Z,15.63
2023-06-09T00:57:56.820Z,15.61
2023-06-09T01:00:29.773Z,15.59
2023-06-09T01:03:02.053Z,15.58
2023-06-09T01:05:35.756Z,15.56
2023-06-09T01:08:10.106Z,15.55
2023-06-09T01:11:11.012Z,15.53
2023-06-09T01:13:55.709Z,15.51
2023-06-09T01:16:28.753Z,15.49
2023-06-09T01:19:00.982Z,15.48
2023-06-09T01:21:46.804Z,15.46
2023-06-09T01:24:33.781Z,15.45
2023-06-09T01:27:03.951Z,15.44
2023-06-09T01:29:34.075Z,15.42
2023-06-09T01:32:04.556Z,15.40
2023-06-09T01:34:32.555Z,15.38
2023-06-09T01:37:03.676Z,15.35
2023-06-09T01:39:32.443Z,15.31
2023-06-09T01:42:00.406Z,15.27
2023-06-09T01:44:28.394Z,15.24
2023-06-09T01:46:56.999Z,15.20
2023-06-09T01:50:04.850Z,15.18
2023-06-09T01:52:45.672Z,15.15
2023-06-09T01:55:24.517Z,15.13
2023-06-09T01:57:58.013Z,15.11
2023-06-09T02:00:28.014Z,15.09
2023-06-09T02:03:00.235Z,15.07
2023-06-09T02:05:31.125Z,15.05
2023-06-09T02:07:59.749Z,15.03
2023-06-09T02:10:28.374Z,15.01
2023-06-09T02:12:56.387Z,14.99
2023-06-09T02:15:24.390Z,14.96
2023-06-09T02:17:52.401Z,14.94
2023-06-09T02:20:21.047Z,14.92
2023-06-09T02:22:49.155Z,14.90
2023-06-09T02:25:17.365Z,14.87
2023-06-09T02:27:46.961Z,14.86
2023-06-09T02:30:15.003Z,14.85
2023-06-09T02:32:43.811Z,14.83
2023-06-09T02:35:12.024Z,14.81
2023-06-09T02:37:43.121Z,14.79
2023-06-09T02:40:11.552Z,14.79
2023-06-09T02:42:40.147Z,14.78
2023-06-09T02:45:10.204Z,14.78
2023-06-09T02:47:38.654Z,14.77
2023-06-09T02:50:07.150Z,14.76
2023-06-09T02:52:35.918Z,14.75
2023-06-09T02:55:04.858Z,14.76
2023-06-09T02:57:33.722Z,14.77
2023-06-09T03:00:01.853Z,14.81
2023-06-09T03:02:30.225Z,14.85
2023-06-09T03:04:58.284Z,14.90
2023-06-09T03:07:26.879Z,14.95
2023-06-09T03:09:55.075Z,14.99
2023-06-09T03:12:23.276Z,15.04
2023-06-09T03:14:52.158Z,15.09
2023-06-09T03:17:20.649Z,15.12
2023-06-09T03:19:49.719Z,15.15
2023-06-09T03:22:17.673Z,15.18
2023-06-09T03:24:49.233Z,15.19
2023-06-09T03:27:18.764Z,15.22
2023-06-09T03:29:46.922Z,15.29
2023-06-09T03:32:14.943Z,15.38
2023-06-09T03:34:42.934Z,15.48
2023-06-09T03:37:13.406Z,15.61
2023-06-09T03:39:42.173Z,15.81
2023-06-09T03:42:11.124Z,16.06
2023-06-09T03:44:39.188Z,16.36
2023-06-09T03:47:07.602Z,16.69
2023-06-09T03:49:36.614Z,17.05
2023-06-09T03:52:07.542Z,17.42
2023-06-09T03:54:36.596Z,17.77
2023-06-09T03:57:05.001Z,18.10
2023-06-09T03:59:33.263Z,18.41
2023-06-09T04:02:01.403Z,18.77
2023-06-09T04:04:29.811Z,19.16
2023-06-09T04:07:00.404Z,19.61
2023-06-09T04:09:28.687Z,19.99
2023-06-09T04:11:56.758Z,20.20
2023-06-09T04:14:25.879Z,20.30
2023-06-09T04:16:55.077Z,20.35
2023-06-09T04:19:23.843Z,20.47
2023-06-09T04:21:51.989Z,20.63
2023-06-09T04:24:21.209Z,20.80
2023-06-09T04:26:50.862Z,20.98
2023-06-09T04:29:19.016Z,21.14
2023-06-09T04:31:47.532Z,21.32
2023-06-09T04:34:17.268Z,21.54
2023-06-09T04:36:48.353Z,21.80
2023-06-09T04:39:17.114Z,22.06
2023-06-09T04:41:48.772Z,22.34
2023-06-09T04:44:17.606Z,22.66
2023-06-09T04:46:47.850Z,22.98
2023-06-09T04:49:19.015Z,23.30
2023-06-09T04:51:48.653Z,23.61
2023-06-09T04:54:29.985Z,23.92
2023-06-09T04:57:01.407Z,24.15
2023-06-09T04:59:30.057Z,24.37
2023-06-09T05:01:58.989Z,24.63
2023-06-09T05:04:27.657Z,24.85
2023-06-09T05:06:56.421Z,24.92
2023-06-09T05:09:24.617Z,24.85
2023-06-09T05:11:53.852Z,24.76
2023-06-09T05:14:22.532Z,24.67
2023-06-09T05:16:51.295Z,24.43
2023-06-09T05:19:19.252Z,24.10
2023-06-09T05:21:47.494Z,23.92
2023-06-09T05:24:16.028Z,23.75
2023-06-09T05:26:46.029Z,23.64
2023-06-09T05:29:14.598Z,23.55
2023-06-09T05:31:42.613Z,23.45
2023-06-09T05:34:10.859Z,23.31
2023-06-09T05:36:39.620Z,23.13
2023-06-09T05:39:09.568Z,23.02
2023-06-09T05:41:38.035Z,22.91
2023-06-09T05:44:06.045Z,22.84
2023-06-09T05:46:38.373Z,22.82
2023-06-09T05:49:07.169Z,22.77
2023-06-09T05:51:35.175Z,22.68
2023-06-09T05:54:03.521Z,22.61
2023-06-09T05:56:31.938Z,22.59
2023-06-09T05:59:03.637Z,22.52
2023-06-09T06:01:33.005Z,22.43
2023-06-09T06:04:01.359Z,22.35
2023-06-09T06:06:31.159Z,22.27
2023-06-09T06:08:59.234Z,22.21
2023-06-09T06:11:29.597Z,22.15
2023-06-09T06:13:57.900Z,22.14
2023-06-09T06:16:26.002Z,22.18
2023-06-09T06:18:54.079Z,22.19
2023-06-09T06:21:22.388Z,22.18
2023-06-09T06:23:50.914Z,22.20
2023-06-09T06:26:19.030Z,22.22
2023-06-09T06:28:47.196Z,22.19
2023-06-09T06:31:18.360Z,22.10
2023-06-09T06:33:46.771Z,22.06
2023-06-09T06:36:15.582Z,22.04
2023-06-09T06:38:43.531Z,22.06
2023-06-09T06:41:11.514Z,22.10
2023-06-09T06:43:39.505Z,22.18
2023-06-09T06:46:08.919Z,22.29
2023-06-09T06:48:39.973Z,22.38
2023-06-09T06:51:08.513Z,22.47
2023-06-09T06:53:38.262Z,22.55
2023-06-09T06:56:06.928Z,22.60
2023-06-09T06:58:34.959Z,22.62
2023-06-09T07:01:04.291Z,22.69
2023-06-09T07:03:34.496Z,22.76
2023-06-09T07:06:05.755Z,22.81
2023-06-09T07:08:33.868Z,22.92
2023-06-09T07:11:02.537Z,23.09
2023-06-09T07:13:30.652Z,23.23
2023-06-09T07:16:01.367Z,23.35
2023-06-09T07:18:30.386Z,23.43
2023-06-09T07:20:58.630Z,23.54
2023-06-09T07:23:27.069Z,23.64
2023-06-09T07:25:56.000Z,23.73
2023-06-09T07:28:24.289Z,23.81
2023-06-09T07:30:53.076Z,23.87
2023-06-09T07:33:21.157Z,23.96
2023-06-09T07:35:50.463Z,24.10
2023-06-09T07:38:18.964Z,24.26
2023-06-09T07:40:47.018Z,24.39
2023-06-09T07:43:15.011Z,24.52
2023-06-09T07:45:42.999Z,24.61
2023-06-09T07:48:11.143Z,24.63
2023-06-09T07:50:51.188Z,24.71
2023-06-09T07:53:27.155Z,24.84
2023-06-09T07:55:55.099Z,24.92
2023-06-09T07:58:23.021Z,24.94
2023-06-09T08:00:52.415Z,25.03
2023-06-09T08:03:20.647Z,25.16
2023-06-09T08:05:48.717Z,25.25
2023-06-09T08:08:18.072Z,25.27
2023-06-09T08:10:46.146Z,25.24
2023-06-09T08:13:17.100Z,25.20
2023-06-09T08:15:45.921Z,25.20
2023-06-09T08:18:14.533Z,25.18
2023-06-09T08:20:43.241Z,25.08
2023-06-09T08:23:11.735Z,24.89
2023-06-09T08:25:42.476Z,24.71
2023-06-09T08:28:12.472Z,24.55
2023-06-09T08:30:41.710Z,24.40
2023-06-09T08:33:10.883Z,24.23
2023-06-09T08:35:39.555Z,24.03
2023-06-09T08:38:08.439Z,23.82
2023-06-09T08:40:37.379Z,23.65
2023-06-09T08:43:11.916Z,23.58
2023-06-09T08:45:45.308Z,23.49
2023-06-09T08:48:20.450Z,23.40
2023-06-09T08:50:49.075Z,23.34
2023-06-09T08:53:18.784Z,23.25
2023-06-09T08:55:49.000Z,23.14
2023-06-09T08:58:17.853Z,23.09
2023-06-09T09:00:48.411Z,23.04
2023-06-09T09:03:18.756Z,23.00
2023-06-09T09:05:48.714Z,22.97
2023-06-09T09:08:18.580Z,22.96
2023-06-09T09:10:50.115Z,23.00
2023-06-09T09:13:19.605Z,23.06
2023-06-09T09:15:51.919Z,23.10
2023-06-09T09:18:23.598Z,23.13
2023-06-09T09:20:52.143Z,23.15
2023-06-09T09:23:30.080Z,23.11
2023-06-09T09:26:04.285Z,23.10
2023-06-09T09:28:44.482Z,23.14
2023-06-09T09:31:12.768Z,23.16
2023-06-09T09:33:49.104Z,23.11
2023-06-09T09:36:19.784Z,23.17
2023-06-09T09:38:47.899Z,23.20
2023-06-09T09:41:16.355Z,23.18
2023-06-09T09:43:47.621Z,23.16
2023-06-09T09:46:20.650Z,23.11
2023-06-09T09:48:50.435Z,23.05
2023-06-09T09:51:22.070Z,22.98
2023-06-09T09:53:53.268Z,22.94
2023-06-09T09:56:25.208Z,22.93
2023-06-09T09:58:54.878Z,22.96
2023-06-09T10:01:28.340Z,22.99
2023-06-09T10:03:57.054Z,23.03
2023-06-09T10:06:30.208Z,23.06
2023-06-09T10:08:59.472Z,23.13
2023-06-09T10:11:31.977Z,23.20
2023-06-09T10:14:03.062Z,23.31
2023-06-09T10:16:32.798Z,23.40
2023-06-09T10:19:01.946Z,23.48
2023-06-09T10:21:30.111Z,23.57
2023-06-09T10:23:59.637Z,23.66
2023-06-09T10:26:28.585Z,23.76
2023-06-09T10:28:56.698Z,23.85
2023-06-09T10:31:26.438Z,23.90
2023-06-09T10:33:54.688Z,23.93
2023-06-09T10:36:22.791Z,23.94
2023-06-09T10:38:55.106Z,23.97
2023-06-09T10:41:32.312Z,23.99
2023-06-09T10:44:10.172Z,24.02
2023-06-09T10:46:47.181Z,24.01
2023-06-09T10:49:30.520Z,23.98
2023-06-09T10:51:58.676Z,23.96
2023-06-09T10:54:27.444Z,24.01
2023-06-09T10:56:58.943Z,24.08
2023-06-09T10:59:27.001Z,24.16
2023-06-09T11:02:04.474Z,24.25
2023-06-09T11:04:50.223Z,24.29
2023-06-09T11:07:23.954Z,24.36
2023-06-09T11:09:51.880Z,24.48
2023-06-09T11:12:25.935Z,24.61
2023-06-09T11:14:59.284Z,24.71
2023-06-09T11:17:41.857Z,24.75
2023-06-09T11:20:10.862Z,24.75
2023-06-09T11:22:42.723Z,24.82
2023-06-09T11:25:20.393Z,24.91
2023-06-09T11:28:08.925Z,25.07
2023-06-09T11:31:06.750Z,25.31
2023-06-09T11:33:52.045Z,25.66
2023-06-09T11:36:26.707Z,25.88
2023-06-09T11:39:01.301Z,26.07
2023-06-09T11:41:29.546Z,26.26
2023-06-09T11:43:58.729Z,26.40
2023-06-09T11:46:27.350Z,26.51
2023-06-09T11:49:06.049Z,26.64
2023-06-09T11:51:57.327Z,26.62
2023-06-09T11:54:44.627Z,26.71
2023-06-09T11:57:19.333Z,26.89
2023-06-09T11:59:47.836Z,27.04
2023-06-09T12:02:18.224Z,27.04
2023-06-09T12:04:47.119Z,27.09
2023-06-09T12:07:15.554Z,27.15
2023-06-09T12:09:44.745Z,27.12
2023-06-09T12:12:12.865Z,27.07
2023-06-09T12:14:41.014Z,27.06
2023-06-09T12:17:11.078Z,27.06
2023-06-09T12:19:39.129Z,27.04
2023-06-09T12:22:07.412Z,26.94
2023-06-09T12:24:35.467Z,26.97
2023-06-09T12:27:14.113Z,27.07
2023-06-09T12:29:42.282Z,27.22
2023-06-09T12:32:10.891Z,27.46
2023-06-09T12:34:39.229Z,27.72
2023-06-09T12:37:07.871Z,27.87
2023-06-09T12:39:36.028Z,28.02
2023-06-09T12:42:14.377Z,28.08
2023-06-09T12:44:42.477Z,28.02
2023-06-09T12:47:17.190Z,27.89
2023-06-09T12:49:45.940Z,27.70
2023-06-09T12:52:14.061Z,27.68
2023-06-09T12:54:42.320Z,27.65
2023-06-09T12:57:10.294Z,27.42
2023-06-09T12:59:38.435Z,27.07
2023-06-09T13:02:06.944Z,26.75
2023-06-09T13:04:35.099Z,26.50
2023-06-09T13:07:03.121Z,26.30
2023-06-09T13:09:31.205Z,26.24
2023-06-09T13:12:01.181Z,26.18
2023-06-09T13:14:29.275Z,26.10
2023-06-09T13:16:57.350Z,26.02
2023-06-09T13:19:27.026Z,25.91
2023-06-09T13:21:55.018Z,25.83
2023-06-09T13:24:23.082Z,25.72
2023-06-09T13:26:51.293Z,25.58
2023-06-09T13:29:19.283Z,25.44
2023-06-09T13:31:47.262Z,25.34
2023-06-09T13:34:15.691Z,25.25
2023-06-09T13:36:44.941Z,25.14
2023-06-09T13:39:13.212Z,25.01
2023-06-09T13:41:41.724Z,24.85
2023-06-09T13:44:09.830Z,24.70
2023-06-09T13:46:39.540Z,24.60
2023-06-09T13:49:08.286Z,24.48
2023-06-09T13:51:37.961Z,24.35
2023-06-09T13:54:05.988Z,24.19
2023-06-09T13:56:34.004Z,24.05
2023-06-09T13:59:02.089Z,23.94
2023-06-09T14:01:31.254Z,23.82
2023-06-09T14:03:59.494Z,23.75
2023-06-09T14:06:27.785Z,23.73
2023-06-09T14:08:56.212Z,23.71
2023-06-09T14:11:24.315Z,23.71
2023-06-09T14:13:52.464Z,23.74
2023-06-09T14:16:21.498Z,23.77
2023-06-09T14:18:49.561Z,23.79
2023-06-09T14:21:17.512Z,23.84
2023-06-09T14:23:45.673Z,23.90
2023-06-09T14:26:15.222Z,23.92
2023-06-09T14:28:43.259Z,23.93
2023-06-09T14:31:11.410Z,23.93
2023-06-09T14:33:39.362Z,23.93
2023-06-09T14:36:07.393Z,23.95
2023-06-09T14:38:35.409Z,23.93
2023-06-09T14:41:03.488Z,23.93
2023-06-09T14:43:31.667Z,23.92
2023-06-09T14:46:00.550Z,23.94
2023-06-09T14:48:28.754Z,23.94
2023-06-09T14:50:56.760Z,23.94
2023-06-09T14:53:24.733Z,23.96
2023-06-09T14:55:52.848Z,23.95
2023-06-09T14:58:20.908Z,23.98
2023-06-09T15:00:49.016Z,24.05
2023-06-09T15:03:18.206Z,24.05
2023-06-09T15:05:47.730Z,24.06
2023-06-09T15:08:15.831Z,24.07
2023-06-09T15:10:45.718Z,24.09
2023-06-09T15:13:16.107Z,24.14
2023-06-09T15:15:46.531Z,24.18
2023-06-09T15:18:15.683Z,24.20
2023-06-09T15:20:44.219Z,24.27
2023-06-09T15:23:13.232Z,24.33
2023-06-09T15:25:44.997Z,24.37
2023-06-09T15:28:15.645Z,24.39
2023-06-09T15:30:46.313Z,24.44
2023-06-09T15:33:22.167Z,24.50
2023-06-09T15:35:55.371Z,24.54
2023-06-09T15:38:25.860Z,24.60
2023-06-09T15:40:55.543Z,24.64
2023-06-09T15:43:24.849Z,24.68
2023-06-09T15:45:55.116Z,24.75
2023-06-09T15:48:24.336Z,24.79
2023-06-09T15:50:52.777Z,24.84
2023-06-09T15:53:22.035Z,24.85
2023-06-09T15:55:52.123Z,24.87
2023-06-09T15:58:20.648Z,24.91
2023-06-09T16:00:50.772Z,24.96
2023-06-09T16:03:20.130Z,25.01
2023-06-09T16:05:50.162Z,25.03
2023-06-09T16:08:19.924Z,25.06
2023-06-09T16:10:52.353Z,25.06
2023-06-09T16:13:22.069Z,25.07
2023-06-09T16:15:51.909Z,25.06
2023-06-09T16:18:22.965Z,25.07
2023-06-09T16:20:51.427Z,25.04
2023-06-09T16:23:19.416Z,25.04
2023-06-09T16:25:47.440Z,25.07
2023-06-09T16:28:15.797Z,25.09
2023-06-09T16:30:43.833Z,25.08
2023-06-09T16:33:12.190Z,25.07
2023-06-09T16:35:40.841Z,25.06
2023-06-09T16:38:08.968Z,24.99
2023-06-09T16:40:37.421Z,24.91
2023-06-09T16:43:05.728Z,24.84
2023-06-09T16:45:33.799Z,24.76
2023-06-09T16:48:02.441Z,24.69
2023-06-09T16:50:30.613Z,24.63
2023-06-09T16:52:58.937Z,24.55
2023-06-09T16:55:27.215Z,24.48
2023-06-09T16:57:55.158Z,24.45
2023-06-09T17:00:23.604Z,24.42
2023-06-09T17:02:55.852Z,24.38
2023-06-09T17:05:25.677Z,24.30
2023-06-09T17:07:53.795Z,24.20
2023-06-09T17:10:22.823Z,24.12
2023-06-09T17:12:51.183Z,24.05
2023-06-09T17:15:19.410Z,23.98
2023-06-09T17:17:47.507Z,23.91
2023-06-09T17:20:15.770Z,23.86
2023-06-09T17:22:43.832Z,23.80
2023-06-09T17:25:12.210Z,23.72
2023-06-09T17:27:40.418Z,23.65
2023-06-09T17:30:14.325Z,23.58
2023-06-09T17:32:44.982Z,23.49
2023-06-09T17:35:14.229Z,23.40
2023-06-09T17:37:42.933Z,23.32
2023-06-09T17:40:12.345Z,23.19
2023-06-09T17:42:41.065Z,23.08
2023-06-09T17:45:11.232Z,23.01
2023-06-09T17:47:40.452Z,22.91
2023-06-09T17:50:09.533Z,22.82
2023-06-09T17:52:37.660Z,22.76
2023-06-09T17:55:06.734Z,22.72
2023-06-09T17:57:35.346Z,22.65
2023-06-09T18:00:06.343Z,22.58
2023-06-09T18:02:37.748Z,22.66
2023-06-09T18:05:06.243Z,22.69
2023-06-09T18:07:34.342Z,22.68
2023-06-09T18:10:04.733Z,22.57
2023-06-09T18:12:32.943Z,22.32
2023-06-09T18:15:00.988Z,22.14
2023-06-09T18:17:29.695Z,21.92
2023-06-09T18:19:57.911Z,21.63
2023-06-09T18:22:26.171Z,21.34
2023-06-09T18:24:54.317Z,21.10
2023-06-09T18:27:22.496Z,20.89
2023-06-09T18:29:50.454Z,20.64
2023-06-09T18:32:18.437Z,20.51
2023-06-09T18:34:49.680Z,20.47
2023-06-09T18:37:18.061Z,20.41
2023-06-09T18:51:44.442Z,20.58
2023-06-09T18:54:11.386Z,20.56
2023-06-09T18:56:37.918Z,20.38
2023-06-09T18:59:04.624Z,20.24
2023-06-09T19:01:31.294Z,20.14
2023-06-09T19:03:58.756Z,20.04
2023-06-09T19:06:25.501Z,19.95
2023-06-09T19:08:53.308Z,19.87
2023-06-09T19:11:21.092Z,19.77
2023-06-09T19:13:49.199Z,19.67
2023-06-09T19:16:15.900Z,19.55
2023-06-09T19:18:42.711Z,19.49
2023-06-09T19:21:09.328Z,19.43
2023-06-09T19:23:36.774Z,19.37
2023-06-09T19:26:03.868Z,19.32
2023-06-09T19:28:30.989Z,19.30
2023-06-09T19:30:57.846Z,19.30
2023-06-09T19:33:24.937Z,19.34
2023-06-09T19:35:52.506Z,19.35
2023-06-09T19:38:19.482Z,19.25
2023-06-09T19:40:46.418Z,19.11
2023-06-09T19:43:14.424Z,19.05
2023-06-09T19:45:41.260Z,19.17
2023-06-09T19:48:08.668Z,19.19
2023-06-09T19:50:37.277Z,19.06
2023-06-09T19:53:05.613Z,18.90
2023-06-09T19:55:32.381Z,18.78
2023-06-09T19:57:59.272Z,18.69
2023-06-09T20:00:26.092Z,18.57
2023-06-09T20:02:52.975Z,18.45
2023-06-09T20:05:20.169Z,18.46
2023-06-09T20:07:46.819Z,18.43
2023-06-09T20:10:13.461Z,18.47
2023-06-09T20:12:41.077Z,18.55
2023-06-09T20:15:09.260Z,18.50
2023-06-09T20:17:36.107Z,18.36
2023-06-09T20:20:04.490Z,18.28
2023-06-09T20:22:31.547Z,18.25
2023-06-09T20:24:59.180Z,18.21
2023-06-09T20:27:26.083Z,18.16
2023-06-09T20:29:52.673Z,18.05
2023-06-09T20:32:19.392Z,17.96
2023-06-09T20:34:46.218Z,17.91
2023-06-09T20:37:12.872Z,17.96
2023-06-09T20:39:41.479Z,18.05
2023-06-09T20:42:08.580Z,18.13
2023-06-09T20:44:35.169Z,18.15
2023-06-09T20:47:02.977Z,18.14
2023-06-09T20:49:29.804Z,18.14
2023-06-09T20:51:56.604Z,18.13
2023-06-09T20:54:24.351Z,18.11
2023-06-09T20:56:51.035Z,18.19
2023-06-09T20:59:17.788Z,18.21
2023-06-09T21:01:46.906Z,18.18
2023-06-09T21:04:14.728Z,18.15
2023-06-09T21:06:41.849Z,18.11
2023-06-09T21:09:08.452Z,18.06
2023-06-09T21:11:35.268Z,18.03
2023-06-09T21:14:02.186Z,18.02
2023-06-09T21:16:28.740Z,18.01
2023-06-09T21:18:55.321Z,18.00
2023-06-09T21:21:22.406Z,17.98
2023-06-09T21:23:49.895Z,17.97
2023-06-09T21:26:16.718Z,17.96
2023-06-09T21:28:43.405Z,17.95
2023-06-09T21:31:11.274Z,17.94
2023-06-09T21:33:38.104Z,17.92
2023-06-09T21:36:05.170Z,17.88
2023-06-09T21:38:31.802Z,17.84
2023-06-09T21:40:58.360Z,17.80
2023-06-09T21:43:24.911Z,17.74
2023-06-09T21:45:51.454Z,17.67
2023-06-09T21:48:18.546Z,17.61
2023-06-09T21:50:45.264Z,17.55
2023-06-09T21:53:11.849Z,17.50
2023-06-09T21:55:38.813Z,17.44
2023-06-09T21:58:05.625Z,17.37
2023-06-09T22:00:33.136Z,17.30
2023-06-09T22:03:00.931Z,17.24
2023-06-09T22:05:28.015Z,17.17
2023-06-09T22:07:55.220Z,17.12
2023-06-09T22:10:21.930Z,17.07
2023-06-09T22:12:49.003Z,17.03
2023-06-09T22:15:16.705Z,16.99
2023-06-09T22:17:45.251Z,16.95
2023-06-09T22:20:14.044Z,16.92
2023-06-09T22:22:41.512Z,16.88
2023-06-09T22:25:09.185Z,16.84
2023-06-09T22:27:35.958Z,16.79
2023-06-09T22:30:03.780Z,16.75
2023-06-09T22:32:30.505Z,16.71
2023-06-09T22:34:58.173Z,16.68
2023-06-09T22:37:25.488Z,16.64
2023-06-09T22:39:52.916Z,16.58
2023-06-09T22:42:19.533Z,16.54
2023-06-09T22:44:46.266Z,16.50
2023-06-09T22:47:13.975Z,16.46
2023-06-09T22:50:09.879Z,16.42
2023-06-09T22:52:45.376Z,16.38
2023-06-09T22:55:15.723Z,16.34
2023-06-09T22:57:47.510Z,16.31
2023-06-09T23:00:15.316Z,16.27
2023-06-09T23:02:42.579Z,16.24
2023-06-09T23:05:14.662Z,16.20
2023-06-09T23:07:41.846Z,16.16
2023-06-09T23:10:12.675Z,16.12
2023-06-09T23:12:40.728Z,16.08
2023-06-09T23:15:09.822Z,16.04
2023-06-09T23:17:37.952Z,16.00
2023-06-09T23:20:07.642Z,15.96
2023-06-09T23:22:37.050Z,15.92
2023-06-09T23:25:06.246Z,15.89
2023-06-09T23:27:33.861Z,15.86
2023-06-09T23:30:01.896Z,15.82
2023-06-09T23:32:28.577Z,15.80
2023-06-09T23:34:56.160Z,15.78
2023-06-09T23:37:23.318Z,15.75
2023-06-09T23:39:50.478Z,15.74
2023-06-09T23:42:17.139Z,15.71
2023-06-09T23:44:43.766Z,15.68
2023-06-09T23:47:10.430Z,15.64
2023-06-09T23:49:36.967Z,15.61
2023-06-09T23:52:03.857Z,15.58
2023-06-09T23:54:31.317Z,15.54
2023-06-09T23:56:57.987Z,15.50
2023-06-09T23:59:24.744Z,15.46
